Time;durP1;ratioP1;P1;durP2;ratioP2;P2;SDS_P1;SDS_P2;PMS_P1;PMS_P2;Temp;Humidity;BMP_temperature;BMP_pressure;BME280_temperature;BME280_humidity;BME280_pressure;Samples;Min_cycle;Max_cycle;Signal;HPM_P1;HPM_P2
2022/01/31 07:20:02;;;;;;;;;;;24.70;39.20;;;;;;3893585;22;20360;-89
2022/01/31 07:21:39;;;;;;;;;;;24.90;40.20;;;;;;3893673;22;19919;-88
2022/01/31 07:23:16;;;;;;;;;;;24.90;40.20;;;;;;3894442;22;19950;-89
2022/01/31 07:25:00;;;;;;;;;;;25.00;40.10;;;;;;3892242;22;19920;-89
2022/01/31 07:26:32;;;;;;;;;;;25.00;40.20;;;;;;3893663;22;19994;-88
2022/01/31 07:28:04;;;;;;;;;;;25.10;40.20;;;;;;3895949;22;19985;-89
2022/01/31 07:29:36;;;;;;;;;;;25.00;38.00;;;;;;3892892;22;19919;-89
2022/01/31 07:31:07;;;;;;;;;;;24.90;38.30;;;;;;3889060;22;19919;-91
2022/01/31 07:32:41;;;;;;;;;;;25.10;39.40;;;;;;3892742;22;19923;-91
2022/01/31 07:34:13;;;;;;;;;;;25.10;39.80;;;;;;3894054;22;19919;-90
2022/01/31 07:35:46;;;;;;;;;;;25.20;40.00;;;;;;3894129;22;20342;-90
2022/01/31 07:37:18;;;;;;;;;;;25.20;40.30;;;;;;3893754;22;19965;-88
2022/01/31 07:38:50;;;;;;;;;;;25.40;40.40;;;;;;3893764;22;20235;-89
2022/01/31 07:40:21;;;;;;;;;;;25.40;40.40;;;;;;3893605;22;20370;-89
2022/01/31 07:41:53;;;;;;;;;;;25.40;40.40;;;;;;3895528;22;20284;-89
2022/01/31 07:43:24;;;;;;;;;;;25.30;38.30;;;;;;3894593;22;20203;-87
2022/01/31 07:44:56;;;;;;;;;;;25.20;37.40;;;;;;3892377;22;19919;-87
2022/01/31 07:46:28;;;;;;;;;;;25.10;37.80;;;;;;3893942;22;19926;-87
2022/01/31 07:48:00;;;;;;;;;;;25.10;37.60;;;;;;3893970;22;19920;-88
2022/01/31 07:49:31;;;;;;;;;;;25.10;37.60;;;;;;3893572;22;19931;-89
2022/01/31 07:51:04;;;;;;;;;;;25.10;37.60;;;;;;3893717;22;20254;-90
2022/01/31 07:52:36;;;;;;;;;;;25.10;37.60;;;;;;3894681;22;19919;-88
2022/01/31 07:54:08;;;;;;;;;;;25.00;37.50;;;;;;3893327;22;19966;-89
2022/01/31 07:55:39;;;;;;;;;;;25.00;37.60;;;;;;3893364;22;19923;-89
2022/01/31 07:57:11;;;;;;;;;;;24.90;37.40;;;;;;3894974;22;19954;-87
2022/01/31 07:58:43;;;;;;;;;;;24.90;37.60;;;;;;3892525;22;19941;-89
2022/01/31 08:00:15;;;;;;;;;;;24.80;37.60;;;;;;3893392;22;19965;-88
2022/01/31 08:01:46;;;;;;;;;;;24.80;37.70;;;;;;3893546;22;19924;-86
2022/01/31 08:03:19;;;;;;;;;;;24.80;37.60;;;;;;3891180;22;19957;-87
2022/01/31 08:04:54;;;;;;;;;;;24.80;37.70;;;;;;3894910;22;20694;-86
2022/01/31 08:06:27;;;;;;;;;;;24.80;37.80;;;;;;3892603;22;20365;-87
2022/01/31 08:07:59;;;;;;;;;;;24.80;37.60;;;;;;3892172;22;20235;-90
2022/01/31 08:09:30;;;;;;;;;;;24.70;37.50;;;;;;3894594;22;19927;-88
2022/01/31 08:11:02;;;;;;;;;;;24.70;37.40;;;;;;3893160;22;19920;-89
2022/01/31 08:12:36;;;;;;;;;;;24.70;37.50;;;;;;3893192;22;19919;-87
2022/01/31 08:14:09;;;;;;;;;;;24.70;37.30;;;;;;3890896;22;19949;-91
2022/01/31 08:15:49;;;;;;;;;;;24.70;37.30;;;;;;3894947;22;19980;-90
2022/01/31 08:17:21;;;;;;;;;;;24.80;37.50;;;;;;3893745;22;19946;-86
2022/01/31 08:18:53;;;;;;;;;;;24.70;37.20;;;;;;3891692;22;19927;-89
2022/01/31 08:20:24;;;;;;;;;;;24.70;37.40;;;;;;3894411;22;19923;-89
2022/01/31 08:21:57;;;;;;;;;;;24.70;38.20;;;;;;3892876;22;19977;-91
2022/01/31 08:23:29;;;;;;;;;;;24.70;37.60;;;;;;3893479;22;19923;-90
2022/01/31 08:25:01;;;;;;;;;;;24.70;37.60;;;;;;3893433;22;20309;-89
2022/01/31 08:26:33;;;;;;;;;;;24.70;37.30;;;;;;3893089;22;19923;-88
2022/01/31 08:28:09;;;;;;;;;;;24.70;37.30;;;;;;3892869;22;19919;-92
2022/01/31 08:29:40;;;;;;;;;;;24.70;37.30;;;;;;3893726;22;19980;-86
2022/01/31 08:31:16;;;;;;;;;;;24.70;37.20;;;;;;3894593;22;19999;-89
2022/01/31 08:32:59;;;;;;;;;;;24.70;37.20;;;;;;3896034;22;20364;-91
2022/01/31 08:36:16;;;;;;;;;;;24.60;37.20;;;;;;3895746;22;19942;-91
2022/01/31 08:37:49;;;;;;;;;;;24.60;37.20;;;;;;3896199;22;19988;-91
2022/01/31 08:39:21;;;;;;;;;;;24.60;37.20;;;;;;3894646;22;19981;-91
2022/01/31 08:40:53;;;;;;;;;;;24.50;37.30;;;;;;3897375;22;20313;-91
2022/01/31 08:42:24;;;;;;;;;;;24.60;37.30;;;;;;3895312;22;19920;-91
2022/01/31 08:43:56;;;;;;;;;;;24.50;37.40;;;;;;3895795;22;19919;-89
2022/01/31 08:45:27;;;;;;;;;;;24.50;37.50;;;;;;3895768;22;19953;-90
2022/01/31 08:46:59;;;;;;;;;;;24.50;37.20;;;;;;3895428;22;19919;-91
2022/01/31 08:48:31;;;;;;;;;;;24.50;37.20;;;;;;3896065;22;19931;-92
2022/01/31 08:50:03;;;;;;;;;;;24.50;37.10;;;;;;3894515;22;20235;-90
2022/01/31 08:51:35;;;;;;;;;;;24.50;37.00;;;;;;3896566;22;19926;-90
2022/01/31 08:53:08;;;;;;;;;;;24.40;37.00;;;;;;3897270;22;20301;-91
2022/01/31 08:54:40;;;;;;;;;;;24.40;36.80;;;;;;3895184;22;19973;-92
2022/01/31 08:56:12;;;;;;;;;;;24.40;36.70;;;;;;3896850;22;19923;-91
2022/01/31 08:57:44;;;;;;;;;;;24.40;36.50;;;;;;3896543;22;19926;-92
2022/01/31 08:59:18;;;;;;;;;;;24.40;36.20;;;;;;3896083;22;19919;-92
2022/01/31 09:00:58;;;;;;;;;;;24.40;36.00;;;;;;3895458;22;20559;-90
2022/01/31 09:02:38;;;;;;;;;;;24.40;35.30;;;;;;3895702;22;20388;-90
2022/01/31 09:04:12;;;;;;;;;;;24.40;35.20;;;;;;3895898;22;19939;-90
2022/01/31 09:05:43;;;;;;;;;;;24.40;34.80;;;;;;3898710;22;19928;-91
2022/01/31 09:07:15;;;;;;;;;;;24.50;34.60;;;;;;3897606;22;20345;-91
2022/01/31 09:08:48;;;;;;;;;;;24.50;34.00;;;;;;3896911;22;19919;-90
2022/01/31 09:10:20;;;;;;;;;;;24.50;34.00;;;;;;3896455;22;19964;-92
2022/01/31 09:11:52;;;;;;;;;;;24.50;33.50;;;;;;3901155;22;19919;-91
2022/01/31 09:13:23;;;;;;;;;;;24.40;33.40;;;;;;3896542;22;19919;-91
2022/01/31 09:14:55;;;;;;;;;;;24.40;33.20;;;;;;3900313;22;19923;-92
2022/01/31 09:16:27;;;;;;;;;;;24.30;33.90;;;;;;3900188;22;19923;-94
2022/01/31 09:17:58;;;;;;;;;;;24.30;34.10;;;;;;3897953;22;20235;-93
2022/01/31 09:19:30;;;;;;;;;;;24.30;34.00;;;;;;3898511;22;19943;-92
2022/01/31 09:21:02;;;;;;;;;;;24.30;33.80;;;;;;3899907;22;19919;-90
2022/01/31 09:22:33;;;;;;;;;;;24.30;35.40;;;;;;3900696;22;20300;-94
2022/01/31 09:24:07;;;;;;;;;;;24.40;35.00;;;;;;3898271;22;19919;-90
2022/01/31 09:25:44;;;;;;;;;;;24.30;34.20;;;;;;3894849;22;20278;-92
2022/01/31 09:27:15;;;;;;;;;;;24.30;34.30;;;;;;3896336;22;19923;-91
2022/01/31 09:28:47;;;;;;;;;;;24.20;34.40;;;;;;3896988;22;19919;-89
2022/01/31 09:30:21;;;;;;;;;;;24.30;34.80;;;;;;3895401;22;19926;-92
2022/01/31 09:31:53;;;;;;;;;;;24.30;35.10;;;;;;3897231;22;19923;-94
2022/01/31 09:33:25;;;;;;;;;;;24.40;35.50;;;;;;3894691;22;19920;-90
2022/01/31 09:34:57;;;;;;;;;;;24.40;36.00;;;;;;3895990;22;19976;-89
2022/01/31 09:36:28;;;;;;;;;;;24.50;36.30;;;;;;3893880;22;19920;-91
2022/01/31 09:38:00;;;;;;;;;;;24.50;36.60;;;;;;3896081;22;19920;-91
2022/01/31 09:39:34;;;;;;;;;;;24.60;36.70;;;;;;3895971;22;19910;-91
2022/01/31 09:41:06;;;;;;;;;;;24.70;36.90;;;;;;3894370;22;19919;-91
2022/01/31 09:42:43;;;;;;;;;;;24.70;37.20;;;;;;3895820;22;20242;-91
2022/01/31 09:44:21;;;;;;;;;;;24.70;37.30;;;;;;3892758;22;19986;-91
2022/01/31 09:46:01;;;;;;;;;;;24.70;37.40;;;;;;3893639;22;20034;-91
2022/01/31 09:48:31;;;;;;;;;;;24.70;37.50;;;;;;3896036;22;19923;-91
2022/01/31 09:49:27;;;;;;;;;;;24.80;37.70;;;;;;3894019;22;20038;-91
2022/01/31 09:50:58;;;;;;;;;;;24.80;37.80;;;;;;3894102;22;19973;-91
2022/01/31 09:52:30;;;;;;;;;;;24.80;37.90;;;;;;3896024;22;19923;-90
2022/01/31 09:54:02;;;;;;;;;;;24.90;38.10;;;;;;3893306;22;19977;-91
2022/01/31 09:55:35;;;;;;;;;;;24.90;38.10;;;;;;3896066;22;20005;-89
2022/01/31 09:57:07;;;;;;;;;;;24.90;38.10;;;;;;3894618;22;19923;-89
2022/01/31 09:58:38;;;;;;;;;;;24.90;38.20;;;;;;3895281;22;20303;-90
2022/01/31 10:00:10;;;;;;;;;;;24.90;38.20;;;;;;3896038;22;19980;-91
2022/01/31 10:01:42;;;;;;;;;;;24.90;38.30;;;;;;3893594;22;19968;-91
2022/01/31 10:03:14;;;;;;;;;;;24.90;38.40;;;;;;3895720;22;19924;-90
2022/01/31 10:04:48;;;;;;;;;;;25.00;38.40;;;;;;3893779;22;19919;-90
2022/01/31 10:06:20;;;;;;;;;;;25.00;38.40;;;;;;3895712;22;19920;-91
2022/01/31 10:07:52;;;;;;;;;;;25.00;38.50;;;;;;3896231;22;19967;-91
2022/01/31 10:09:24;;;;;;;;;;;25.00;39.10;;;;;;3894416;22;19919;-91
2022/01/31 10:11:01;;;;;;;;;;;25.00;38.50;;;;;;3895975;22;19920;-90
2022/01/31 10:16:25;;;;;;;;;;;25.10;38.60;;;;;;3894762;22;19923;-90
2022/01/31 10:16:26;;;;;;;;;;;25.10;38.60;;;;;;3895417;22;19915;-91
2022/01/31 10:17:59;;;;;;;;;;;25.10;38.60;;;;;;3896605;22;19937;-91
2022/01/31 10:19:30;;;;;;;;;;;25.10;38.70;;;;;;3893772;22;19923;-92
2022/01/31 10:21:02;;;;;;;;;;;25.20;38.70;;;;;;3896682;22;19923;-90
2022/01/31 10:22:34;;;;;;;;;;;25.10;38.70;;;;;;3894465;22;19919;-90
2022/01/31 10:24:15;;;;;;;;;;;25.20;38.80;;;;;;3894485;22;20386;-90
2022/01/31 10:25:47;;;;;;;;;;;25.20;38.70;;;;;;3896076;22;20358;-91
2022/01/31 10:27:21;;;;;;;;;;;25.20;38.80;;;;;;3894419;22;19969;-91
2022/01/31 10:28:52;;;;;;;;;;;25.20;38.80;;;;;;3894889;22;20353;-91
2022/01/31 10:30:25;;;;;;;;;;;25.20;38.70;;;;;;3892434;22;19920;-90
2022/01/31 10:32:02;;;;;;;;;;;25.30;38.80;;;;;;3895181;22;19990;-91
2022/01/31 10:33:35;;;;;;;;;;;25.30;38.80;;;;;;3893651;22;19930;-91
2022/01/31 10:35:07;;;;;;;;;;;25.30;38.80;;;;;;3894256;22;19984;-91
2022/01/31 10:36:39;;;;;;;;;;;25.30;38.80;;;;;;3894971;22;19920;-90
2022/01/31 10:38:13;;;;;;;;;;;25.30;38.80;;;;;;3894542;22;19924;-90
2022/01/31 10:43:45;;;;;;;;;;;25.30;38.80;;;;;;3893577;22;19923;-89
2022/01/31 10:45:27;;;;;;;;;;;25.40;38.80;;;;;;3893241;22;19920;-90
2022/01/31 10:52:55;;;;;;;;;;;25.40;38.70;;;;;;3877945;22;19922;-90
2022/01/31 10:54:39;;;;;;;;;;;25.40;38.70;;;;;;3893783;22;19991;-91
2022/01/31 10:56:10;;;;;;;;;;;25.50;38.80;;;;;;3894059;22;19919;-90
2022/01/31 10:57:42;;;;;;;;;;;25.50;38.80;;;;;;3895427;22;20305;-90
2022/01/31 10:59:15;;;;;;;;;;;25.50;38.70;;;;;;3893317;22;19941;-90
2022/01/31 11:00:47;;;;;;;;;;;25.50;38.70;;;;;;3892676;22;20346;-92
2022/01/31 11:02:19;;;;;;;;;;;25.50;38.70;;;;;;3895022;22;19919;-91
2022/01/31 11:03:51;;;;;;;;;;;25.60;38.70;;;;;;3892469;22;19919;-91
2022/01/31 11:05:23;;;;;;;;;;;25.60;38.70;;;;;;3894822;22;19923;-91
2022/01/31 11:06:57;;;;;;;;;;;25.60;38.70;;;;;;3894664;22;19919;-91
2022/01/31 11:08:29;;;;;;;;;;;25.60;38.70;;;;;;3893376;22;19965;-91
2022/01/31 11:10:00;;;;;;;;;;;25.60;38.70;;;;;;3894854;22;19919;-90
2022/01/31 11:11:32;;;;;;;;;;;25.60;38.70;;;;;;3893268;22;20000;-90
2022/01/31 11:13:04;;;;;;;;;;;25.60;38.60;;;;;;3894747;22;19951;-88
2022/01/31 11:14:38;;;;;;;;;;;25.70;38.70;;;;;;3894729;22;19965;-91
2022/01/31 11:16:10;;;;;;;;;;;25.70;38.60;;;;;;3892766;22;19939;-91
2022/01/31 11:17:42;;;;;;;;;;;25.70;38.70;;;;;;3895720;22;20301;-91
2022/01/31 11:19:15;;;;;;;;;;;25.70;38.50;;;;;;3893608;22;20300;-91
2022/01/31 11:20:49;;;;;;;;;;;25.70;38.60;;;;;;3895238;22;19920;-90
2022/01/31 11:22:27;;;;;;;;;;;25.70;38.60;;;;;;3894915;22;19919;-90
2022/01/31 11:24:02;;;;;;;;;;;25.70;38.50;;;;;;3892750;22;19919;-90
2022/01/31 11:25:33;;;;;;;;;;;25.70;38.40;;;;;;3895721;22;19957;-91
2022/01/31 11:27:08;;;;;;;;;;;25.70;38.60;;;;;;3894068;22;20002;-90
2022/01/31 11:28:40;;;;;;;;;;;25.70;38.40;;;;;;3893583;22;19919;-89
2022/01/31 11:30:13;;;;;;;;;;;25.70;38.50;;;;;;3893887;22;19923;-90
2022/01/31 11:31:45;;;;;;;;;;;25.70;38.50;;;;;;3893934;22;19919;-88
2022/01/31 11:33:17;;;;;;;;;;;25.80;38.50;;;;;;3893802;22;19919;-89
2022/01/31 11:34:49;;;;;;;;;;;25.80;38.40;;;;;;3893480;22;19919;-89
2022/01/31 11:36:20;;;;;;;;;;;25.80;38.50;;;;;;3894424;22;19945;-89
2022/01/31 11:37:52;;;;;;;;;;;25.80;38.50;;;;;;3894730;22;19973;-89
2022/01/31 11:39:33;;;;;;;;;;;25.80;38.50;;;;;;3893185;22;19923;-87
2022/01/31 11:41:08;;;;;;;;;;;25.80;38.40;;;;;;3895814;22;20242;-88
2022/01/31 11:42:41;;;;;;;;;;;25.80;36.60;;;;;;3893153;22;19930;-86
2022/01/31 11:44:17;;;;;;;;;;;25.80;37.10;;;;;;3893136;22;20304;-88
2022/01/31 11:45:52;;;;;;;;;;;25.80;37.50;;;;;;3894173;22;19923;-88
2022/01/31 11:47:24;;;;;;;;;;;25.80;33.90;;;;;;3896058;22;19922;-90
2022/01/31 11:48:56;;;;;;;;;;;25.70;33.40;;;;;;3895480;22;19923;-89
2022/01/31 11:50:29;;;;;;;;;;;25.70;35.00;;;;;;3895463;22;19919;-87
2022/01/31 11:52:04;;;;;;;;;;;25.80;36.30;;;;;;3893646;22;19919;-85
2022/01/31 11:53:36;;;;;;;;;;;25.90;37.00;;;;;;3893997;22;19926;-87
2022/01/31 11:55:09;;;;;;;;;;;25.90;36.80;;;;;;3893421;22;19973;-89
2022/01/31 11:56:44;;;;;;;;;;;25.90;37.50;;;;;;3895266;22;19919;-89
2022/01/31 11:58:17;;;;;;;;;;;25.90;37.90;;;;;;3896231;22;19919;-90
2022/01/31 11:59:50;;;;;;;;;;;26.00;38.30;;;;;;3893345;22;20413;-89
2022/01/31 12:01:23;;;;;;;;;;;26.00;38.40;;;;;;3893086;22;19985;-91
2022/01/31 12:02:56;;;;;;;;;;;26.00;38.60;;;;;;3892950;22;19959;-89
2022/01/31 12:04:32;;;;;;;;;;;26.00;38.90;;;;;;3898233;22;19930;-91
2022/01/31 12:06:10;;;;;;;;;;;26.00;38.80;;;;;;3899271;22;19919;-90
2022/01/31 12:07:43;;;;;;;;;;;26.00;39.40;;;;;;3899358;22;19954;-88
2022/01/31 12:09:16;;;;;;;;;;;26.10;39.10;;;;;;3901832;22;20342;-89
2022/01/31 12:11:04;;;;;;;;;;;26.10;35.30;;;;;;3907863;22;19907;-91
2022/01/31 12:12:44;;;;;;;;;;;26.00;31.30;;;;;;3906938;22;20387;-89
2022/01/31 12:14:23;;;;;;;;;;;25.80;30.80;;;;;;3898567;22;19919;-89
2022/01/31 12:16:15;;;;;;;;;;;25.70;31.30;;;;;;3901141;22;19926;-92
2022/01/31 12:18:04;;;;;;;;;;;25.60;31.60;;;;;;3900592;22;19923;-89
2022/01/31 12:19:59;;;;;;;;;;;25.50;31.90;;;;;;3896638;22;19923;-88
2022/01/31 12:23:25;;;;;;;;;;;25.30;31.10;;;;;;3895695;22;19915;-89
2022/01/31 12:24:57;;;;;;;;;;;25.30;31.80;;;;;;3900331;22;19919;-90
2022/01/31 12:26:35;;;;;;;;;;;25.30;31.80;;;;;;3899860;22;19926;-90
2022/01/31 12:28:22;;;;;;;;;;;25.20;31.90;;;;;;3901916;22;19957;-90
2022/01/31 12:29:56;;;;;;;;;;;25.20;32.10;;;;;;3904053;22;19923;-88
2022/01/31 12:31:28;;;;;;;;;;;25.10;31.90;;;;;;3895886;22;19947;-90
2022/01/31 12:41:40;;;;;;;;;;;25.10;33.30;;;;;;3835604;23;19982;-85
2022/01/31 12:43:45;;;;;;;;;;;;;;;;;;;;;
2022/01/31 12:45:42;;;;;;;;;;;25.10;33.80;;;;;;3894671;22;19920;-88
2022/01/31 12:47:15;;;;;;;;;;;25.10;33.80;;;;;;3896201;22;19930;-86
2022/01/31 12:49:05;;;;;;;;;;;25.20;33.90;;;;;;3895227;22;19956;-86
2022/01/31 12:50:37;;;;;;;;;;;25.20;33.80;;;;;;3896345;22;19919;-87
2022/01/31 12:52:10;;;;;;;;;;;25.10;33.80;;;;;;3895305;22;19942;-86
2022/01/31 12:53:47;;;;;;;;;;;25.10;33.80;;;;;;3896523;22;20126;-85
2022/01/31 12:55:19;;;;;;;;;;;25.10;33.90;;;;;;3896537;22;19990;-87
2022/01/31 12:56:52;;;;;;;;;;;25.10;34.00;;;;;;3895000;22;19923;-86
2022/01/31 12:58:28;;;;;;;;;;;25.10;34.00;;;;;;3897182;22;19923;-87
2022/01/31 13:00:00;;;;;;;;;;;25.10;34.20;;;;;;3896702;22;19973;-84
2022/01/31 13:01:32;;;;;;;;;;;25.10;34.20;;;;;;3894574;22;19919;-86
2022/01/31 13:03:03;;;;;;;;;;;25.10;34.20;;;;;;3896025;22;19923;-86
2022/01/31 13:04:35;;;;;;;;;;;25.10;34.20;;;;;;3894923;22;19989;-85
2022/01/31 18:29:59;;;;;;;;;;;24.70;43.60;;;;;;3896615;22;19911;-89
2022/01/31 18:31:34;;;;;;;;;;;24.70;43.50;;;;;;3859439;23;20413;-90
2022/01/31 18:33:31;;;;;;;;;;;24.70;43.20;;;;;;3876381;23;19920;-89
2022/01/31 18:35:02;;;;;;;;;;;24.80;43.30;;;;;;3876954;23;19919;-91
2022/01/31 18:36:37;;;;;;;;;;;24.80;43.10;;;;;;3877734;23;19974;-88
2022/01/31 18:38:09;;;;;;;;;;;24.80;43.30;;;;;;3877115;23;19919;-89
2022/01/31 18:39:41;;;;;;;;;;;24.80;43.00;;;;;;3875043;22;19950;-89
2022/01/31 18:41:14;;;;;;;;;;;24.80;43.00;;;;;;3878048;23;19947;-87
2022/01/31 18:42:46;;;;;;;;;;;24.80;43.00;;;;;;3879850;23;19920;-87
2022/01/31 18:44:19;;;;;;;;;;;24.80;43.10;;;;;;3878359;22;19930;-90
2022/01/31 18:45:51;;;;;;;;;;;24.80;43.10;;;;;;3851887;23;20333;-89
2022/01/31 18:47:24;;;;;;;;;;;24.90;43.20;;;;;;3861400;23;19920;-89
2022/01/31 18:48:56;;;;;;;;;;;24.90;43.50;;;;;;3875786;22;19920;-90
2022/01/31 18:50:36;;;;;;;;;;;24.80;43.30;;;;;;3876405;23;19928;-90
2022/01/31 18:52:15;;;;;;;;;;;24.90;43.50;;;;;;3875846;23;19930;-89
2022/01/31 18:53:50;;;;;;;;;;;24.90;43.50;;;;;;3876148;22;19920;-89
2022/01/31 18:55:23;;;;;;;;;;;24.90;43.40;;;;;;3876705;23;19935;-88
2022/01/31 18:56:54;;;;;;;;;;;24.90;43.40;;;;;;3879524;23;19970;-88
2022/01/31 18:58:34;;;;;;;;;;;24.90;43.50;;;;;;3878153;22;20262;-90
2022/01/31 19:00:07;;;;;;;;;;;25.00;43.60;;;;;;3874556;23;19950;-89
2022/01/31 19:01:46;;;;;;;;;;;25.00;43.90;;;;;;3874435;23;19920;-89
2022/01/31 19:03:22;;;;;;;;;;;25.00;43.70;;;;;;3878768;23;20300;-90
2022/01/31 19:05:08;;;;;;;;;;;25.00;43.70;;;;;;3876761;23;19951;-88
